sensor_id;sensor_type;location;lat;lon;timestamp;P1;durP1;ratioP1;P2;durP2;ratioP2
8993;SDS011;4532;50.886;4.700;2023-03-12T00:01:19;8.57;;;4.63;;
8993;SDS011;4532;50.886;4.700;2023-03-12T00:03:53;6.13;;;4.17;;
8993;SDS011;4532;50.886;4.700;2023-03-12T00:06:20;8.77;;;4.67;;
8993;SDS011;4532;50.886;4.700;2023-03-12T00:08:50;7.43;;;4.43;;
8993;SDS011;4532;50.886;4.700;2023-03-12T00:11:23;7.93;;;4.87;;
8993;SDS011;4532;50.886;4.700;2023-03-12T00:13:53;8.63;;;4.30;;
8993;SDS011;4532;50.886;4.700;2023-03-12T00:16:24;8.27;;;4.90;;
8993;SDS011;4532;50.886;4.700;2023-03-12T00:18:54;6.57;;;4.97;;
8993;SDS011;4532;50.886;4.700;2023-03-12T00:21:22;8.77;;;4.97;;
8993;SDS011;4532;50.886;4.700;2023-03-12T00:23:50;9.33;;;4.70;;
8993;SDS011;4532;50.886;4.700;2023-03-12T00:26:18;8.70;;;4.20;;
8993;SDS011;4532;50.886;4.700;2023-03-12T00:28:47;10.10;;;4.60;;
8993;SDS011;4532;50.886;4.700;2023-03-12T00:31:19;7.73;;;4.87;;
8993;SDS011;4532;50.886;4.700;2023-03-12T00:33:49;10.97;;;4.87;;
8993;SDS011;4532;50.886;4.700;2023-03-12T00:36:19;9.10;;;4.50;;
8993;SDS011;4532;50.886;4.700;2023-03-12T00:38:52;9.43;;;4.47;;
8993;SDS011;4532;50.886;4.700;2023-03-12T00:41:22;9.47;;;4.50;;
8993;SDS011;4532;50.886;4.700;2023-03-12T00:43:54;10.27;;;4.37;;
8993;SDS011;4532;50.886;4.700;2023-03-12T00:46:24;8.00;;;4.37;;
8993;SDS011;4532;50.886;4.700;2023-03-12T00:48:51;10.97;;;4.87;;
8993;SDS011;4532;50.886;4.700;2023-03-12T00:51:20;7.87;;;4.53;;
8993;SDS011;4532;50.886;4.700;2023-03-12T00:53:50;9.37;;;4.40;;
8993;SDS011;4532;50.886;4.700;2023-03-12T00:56:17;7.87;;;3.97;;
8993;SDS011;4532;50.886;4.700;2023-03-12T00:58:49;7.73;;;4.43;;
8993;SDS011;4532;50.886;4.700;2023-03-12T01:01:20;9.03;;;4.23;;
8993;SDS011;4532;50.886;4.700;2023-03-12T01:03:48;8.13;;;4.13;;
8993;SDS011;4532;50.886;4.700;2023-03-12T01:06:20;8.10;;;3.67;;
8993;SDS011;4532;50.886;4.700;2023-03-12T01:08:51;8.20;;;4.30;;
8993;SDS011;4532;50.886;4.700;2023-03-12T01:11:20;8.57;;;4.17;;
8993;SDS011;4532;50.886;4.700;2023-03-12T01:13:52;8.37;;;4.50;;
8993;SDS011;4532;50.886;4.700;2023-03-12T01:16:20;7.87;;;4.17;;
8993;SDS011;4532;50.886;4.700;2023-03-12T01:18:47;8.63;;;4.13;;
8993;SDS011;4532;50.886;4.700;2023-03-12T01:21:17;8.93;;;4.30;;
8993;SDS011;4532;50.886;4.700;2023-03-12T01:23:44;8.00;;;3.80;;
8993;SDS011;4532;50.886;4.700;2023-03-12T01:26:11;8.27;;;3.87;;
8993;SDS011;4532;50.886;4.700;2023-03-12T01:28:43;6.97;;;3.60;;
8993;SDS011;4532;50.886;4.700;2023-03-12T01:31:13;7.30;;;3.70;;
8993;SDS011;4532;50.886;4.700;2023-03-12T01:33:46;7.93;;;3.47;;
8993;SDS011;4532;50.886;4.700;2023-03-12T01:36:16;9.57;;;3.53;;
8993;SDS011;4532;50.886;4.700;2023-03-12T01:38:51;7.33;;;3.53;;
8993;SDS011;4532;50.886;4.700;2023-03-12T01:41:22;8.40;;;3.47;;
8993;SDS011;4532;50.886;4.700;2023-03-12T01:43:51;6.83;;;3.17;;
8993;SDS011;4532;50.886;4.700;2023-03-12T01:49:35;7.07;;;2.90;;
8993;SDS011;4532;50.886;4.700;2023-03-12T01:51:38;9.00;;;2.80;;
8993;SDS011;4532;50.886;4.700;2023-03-12T01:56:55;5.20;;;2.70;;
8993;SDS011;4532;50.886;4.700;2023-03-12T01:59:24;6.43;;;2.80;;
8993;SDS011;4532;50.886;4.700;2023-03-12T02:01:58;9.40;;;2.47;;
8993;SDS011;4532;50.886;4.700;2023-03-12T02:04:30;6.67;;;2.60;;
8993;SDS011;4532;50.886;4.700;2023-03-12T02:07:09;4.90;;;2.33;;
8993;SDS011;4532;50.886;4.700;2023-03-12T02:09:42;4.73;;;2.43;;
8993;SDS011;4532;50.886;4.700;2023-03-12T02:12:15;7.10;;;2.87;;
8993;SDS011;4532;50.886;4.700;2023-03-12T02:14:43;6.60;;;2.30;;
8993;SDS011;4532;50.886;4.700;2023-03-12T02:17:12;3.87;;;2.27;;
8993;SDS011;4532;50.886;4.700;2023-03-12T02:22:12;5.90;;;2.23;;
8993;SDS011;4532;50.886;4.700;2023-03-12T02:24:45;5.20;;;2.10;;
8993;SDS011;4532;50.886;4.700;2023-03-12T02:27:21;6.27;;;2.10;;
8993;SDS011;4532;50.886;4.700;2023-03-12T02:29:54;4.77;;;2.10;;
8993;SDS011;4532;50.886;4.700;2023-03-12T02:32:25;5.27;;;2.87;;
8993;SDS011;4532;50.886;4.700;2023-03-12T02:34:58;4.37;;;2.03;;
8993;SDS011;4532;50.886;4.700;2023-03-12T02:37:28;8.53;;;2.30;;
8993;SDS011;4532;50.886;4.700;2023-03-12T02:40:07;4.47;;;2.23;;
8993;SDS011;4532;50.886;4.700;2023-03-12T02:42:43;4.43;;;2.00;;
8993;SDS011;4532;50.886;4.700;2023-03-12T02:45:12;6.63;;;2.03;;
8993;SDS011;4532;50.886;4.700;2023-03-12T02:47:40;6.07;;;1.93;;
8993;SDS011;4532;50.886;4.700;2023-03-12T02:50:09;3.73;;;2.10;;
8993;SDS011;4532;50.886;4.700;2023-03-12T02:52:37;5.23;;;2.20;;
8993;SDS011;4532;50.886;4.700;2023-03-12T02:55:10;4.70;;;2.20;;
8993;SDS011;4532;50.886;4.700;2023-03-12T02:57:37;6.50;;;2.30;;
8993;SDS011;4532;50.886;4.700;2023-03-12T03:00:09;6.03;;;2.40;;
8993;SDS011;4532;50.886;4.700;2023-03-12T03:02:38;5.03;;;2.43;;
8993;SDS011;4532;50.886;4.700;2023-03-12T03:05:11;4.37;;;2.57;;
8993;SDS011;4532;50.886;4.700;2023-03-12T03:07:40;5.87;;;2.27;;
8993;SDS011;4532;50.886;4.700;2023-03-12T03:10:10;5.37;;;2.37;;
8993;SDS011;4532;50.886;4.700;2023-03-12T03:12:41;4.43;;;2.17;;
8993;SDS011;4532;50.886;4.700;2023-03-12T03:15:08;7.77;;;2.50;;
8993;SDS011;4532;50.886;4.700;2023-03-12T03:17:37;6.70;;;2.77;;
8993;SDS011;4532;50.886;4.700;2023-03-12T03:20:04;8.10;;;2.73;;
8993;SDS011;4532;50.886;4.700;2023-03-12T03:22:39;4.43;;;2.67;;
8993;SDS011;4532;50.886;4.700;2023-03-12T03:25:07;6.20;;;2.30;;
8993;SDS011;4532;50.886;4.700;2023-03-12T03:27:35;6.57;;;2.23;;
8993;SDS011;4532;50.886;4.700;2023-03-12T03:30:05;6.70;;;2.67;;
8993;SDS011;4532;50.886;4.700;2023-03-12T03:32:38;5.10;;;2.73;;
8993;SDS011;4532;50.886;4.700;2023-03-12T03:35:09;5.33;;;2.33;;
8993;SDS011;4532;50.886;4.700;2023-03-12T03:37:39;7.23;;;3.00;;
8993;SDS011;4532;50.886;4.700;2023-03-12T03:40:06;5.60;;;2.40;;
8993;SDS011;4532;50.886;4.700;2023-03-12T03:42:42;4.87;;;2.30;;
8993;SDS011;4532;50.886;4.700;2023-03-12T03:45:12;5.20;;;2.27;;
8993;SDS011;4532;50.886;4.700;2023-03-12T03:47:39;7.63;;;2.33;;
8993;SDS011;4532;50.886;4.700;2023-03-12T03:50:10;6.30;;;2.47;;
8993;SDS011;4532;50.886;4.700;2023-03-12T03:52:40;6.40;;;2.27;;
8993;SDS011;4532;50.886;4.700;2023-03-12T03:55:07;6.47;;;2.57;;
8993;SDS011;4532;50.886;4.700;2023-03-12T03:57:35;4.93;;;2.40;;
8993;SDS011;4532;50.886;4.700;2023-03-12T04:00:03;6.37;;;2.50;;
8993;SDS011;4532;50.886;4.700;2023-03-12T04:02:37;3.97;;;2.33;;
8993;SDS011;4532;50.886;4.700;2023-03-12T04:05:05;5.57;;;2.30;;
8993;SDS011;4532;50.886;4.700;2023-03-12T04:07:34;3.07;;;1.97;;
8993;SDS011;4532;50.886;4.700;2023-03-12T04:10:03;8.17;;;2.50;;
8993;SDS011;4532;50.886;4.700;2023-03-12T04:12:33;4.20;;;2.23;;
8993;SDS011;4532;50.886;4.700;2023-03-12T04:15:03;3.50;;;2.30;;
8993;SDS011;4532;50.886;4.700;2023-03-12T04:17:32;3.80;;;2.40;;
8993;SDS011;4532;50.886;4.700;2023-03-12T04:20:02;5.20;;;2.60;;
8993;SDS011;4532;50.886;4.700;2023-03-12T04:22:32;4.30;;;2.27;;
8993;SDS011;4532;50.886;4.700;2023-03-12T04:25:04;7.53;;;2.60;;
8993;SDS011;4532;50.886;4.700;2023-03-12T04:27:33;5.67;;;2.30;;
8993;SDS011;4532;50.886;4.700;2023-03-12T04:30:03;5.43;;;2.47;;
8993;SDS011;4532;50.886;4.700;2023-03-12T04:32:33;8.47;;;2.93;;
8993;SDS011;4532;50.886;4.700;2023-03-12T04:35:03;7.23;;;3.17;;
8993;SDS011;4532;50.886;4.700;2023-03-12T04:37:32;4.70;;;2.80;;
8993;SDS011;4532;50.886;4.700;2023-03-12T04:40:05;6.47;;;2.30;;
8993;SDS011;4532;50.886;4.700;2023-03-12T04:42:33;4.57;;;2.77;;
8993;SDS011;4532;50.886;4.700;2023-03-12T04:45:02;4.87;;;2.50;;
8993;SDS011;4532;50.886;4.700;2023-03-12T04:47:34;5.03;;;2.80;;
8993;SDS011;4532;50.886;4.700;2023-03-12T04:50:04;5.00;;;2.73;;
8993;SDS011;4532;50.886;4.700;2023-03-12T04:52:33;7.37;;;3.33;;
8993;SDS011;4532;50.886;4.700;2023-03-12T04:55:04;5.53;;;2.73;;
8993;SDS011;4532;50.886;4.700;2023-03-12T04:57:31;6.37;;;3.57;;
8993;SDS011;4532;50.886;4.700;2023-03-12T04:59:59;4.27;;;2.70;;
8993;SDS011;4532;50.886;4.700;2023-03-12T05:02:26;4.43;;;2.27;;
8993;SDS011;4532;50.886;4.700;2023-03-12T05:04:54;6.13;;;3.00;;
8993;SDS011;4532;50.886;4.700;2023-03-12T05:07:25;5.73;;;2.60;;
8993;SDS011;4532;50.886;4.700;2023-03-12T05:09:52;4.63;;;2.60;;
8993;SDS011;4532;50.886;4.700;2023-03-12T05:12:21;4.77;;;2.70;;
8993;SDS011;4532;50.886;4.700;2023-03-12T05:14:48;4.93;;;2.10;;
8993;SDS011;4532;50.886;4.700;2023-03-12T05:17:18;7.57;;;3.67;;
8993;SDS011;4532;50.886;4.700;2023-03-12T05:19:50;5.23;;;2.70;;
8993;SDS011;4532;50.886;4.700;2023-03-12T05:22:19;4.93;;;2.70;;
8993;SDS011;4532;50.886;4.700;2023-03-12T05:24:49;4.37;;;2.37;;
8993;SDS011;4532;50.886;4.700;2023-03-12T05:27:16;3.53;;;2.43;;
8993;SDS011;4532;50.886;4.700;2023-03-12T05:29:43;4.83;;;2.40;;
8993;SDS011;4532;50.886;4.700;2023-03-12T05:32:15;5.80;;;2.93;;
8993;SDS011;4532;50.886;4.700;2023-03-12T05:34:42;4.90;;;2.70;;
8993;SDS011;4532;50.886;4.700;2023-03-12T05:37:09;5.63;;;2.73;;
8993;SDS011;4532;50.886;4.700;2023-03-12T05:39:39;5.90;;;2.90;;
8993;SDS011;4532;50.886;4.700;2023-03-12T05:42:12;6.17;;;3.03;;
8993;SDS011;4532;50.886;4.700;2023-03-12T05:44:42;6.33;;;3.30;;
8993;SDS011;4532;50.886;4.700;2023-03-12T05:47:12;5.17;;;3.20;;
8993;SDS011;4532;50.886;4.700;2023-03-12T05:49:39;6.00;;;3.10;;
8993;SDS011;4532;50.886;4.700;2023-03-12T05:52:11;4.50;;;3.00;;
8993;SDS011;4532;50.886;4.700;2023-03-12T05:54:41;5.47;;;3.30;;
8993;SDS011;4532;50.886;4.700;2023-03-12T05:57:10;6.40;;;3.63;;
8993;SDS011;4532;50.886;4.700;2023-03-12T05:59:37;6.53;;;2.90;;
8993;SDS011;4532;50.886;4.700;2023-03-12T06:02:05;4.90;;;3.13;;
8993;SDS011;4532;50.886;4.700;2023-03-12T06:04:34;7.07;;;3.20;;
8993;SDS011;4532;50.886;4.700;2023-03-12T06:07:07;7.00;;;3.43;;
8993;SDS011;4532;50.886;4.700;2023-03-12T06:09:34;5.27;;;3.20;;
8993;SDS011;4532;50.886;4.700;2023-03-12T06:12:03;6.17;;;3.97;;
8993;SDS011;4532;50.886;4.700;2023-03-12T06:14:31;5.73;;;3.73;;
8993;SDS011;4532;50.886;4.700;2023-03-12T06:17:00;6.30;;;3.80;;
8993;SDS011;4532;50.886;4.700;2023-03-12T06:19:30;6.57;;;3.37;;
8993;SDS011;4532;50.886;4.700;2023-03-12T06:21:57;7.13;;;4.60;;
8993;SDS011;4532;50.886;4.700;2023-03-12T06:24:27;5.73;;;3.50;;
8993;SDS011;4532;50.886;4.700;2023-03-12T06:26:54;9.57;;;4.20;;
8993;SDS011;4532;50.886;4.700;2023-03-12T06:29:21;8.53;;;3.67;;
8993;SDS011;4532;50.886;4.700;2023-03-12T06:31:50;7.17;;;4.40;;
8993;SDS011;4532;50.886;4.700;2023-03-12T06:34:18;7.03;;;4.70;;
8993;SDS011;4532;50.886;4.700;2023-03-12T06:36:47;7.97;;;4.57;;
8993;SDS011;4532;50.886;4.700;2023-03-12T06:39:17;7.30;;;4.37;;
8993;SDS011;4532;50.886;4.700;2023-03-12T06:41:46;5.47;;;3.97;;
8993;SDS011;4532;50.886;4.700;2023-03-12T06:44:16;7.13;;;4.47;;
8993;SDS011;4532;50.886;4.700;2023-03-12T06:46:43;4.87;;;4.13;;
8993;SDS011;4532;50.886;4.700;2023-03-12T06:49:13;7.47;;;4.67;;
8993;SDS011;4532;50.886;4.700;2023-03-12T06:51:40;5.10;;;4.17;;
8993;SDS011;4532;50.886;4.700;2023-03-12T06:54:07;6.73;;;4.43;;
8993;SDS011;4532;50.886;4.700;2023-03-12T06:56:35;8.60;;;4.87;;
8993;SDS011;4532;50.886;4.700;2023-03-12T06:59:08;5.00;;;4.30;;
8993;SDS011;4532;50.886;4.700;2023-03-12T07:01:37;7.53;;;5.03;;
8993;SDS011;4532;50.886;4.700;2023-03-12T07:04:07;6.80;;;4.13;;
8993;SDS011;4532;50.886;4.700;2023-03-12T07:06:34;4.90;;;4.30;;
8993;SDS011;4532;50.886;4.700;2023-03-12T07:09:01;6.40;;;4.60;;
8993;SDS011;4532;50.886;4.700;2023-03-12T07:11:36;5.93;;;4.90;;
8993;SDS011;4532;50.886;4.700;2023-03-12T07:14:03;6.20;;;4.67;;
8993;SDS011;4532;50.886;4.700;2023-03-12T07:16:31;6.30;;;5.03;;
8993;SDS011;4532;50.886;4.700;2023-03-12T07:18:58;5.93;;;5.07;;
8993;SDS011;4532;50.886;4.700;2023-03-12T07:21:27;6.70;;;4.83;;
8993;SDS011;4532;50.886;4.700;2023-03-12T07:23:55;9.87;;;4.70;;
8993;SDS011;4532;50.886;4.700;2023-03-12T07:26:27;5.87;;;5.17;;
8993;SDS011;4532;50.886;4.700;2023-03-12T07:28:59;6.27;;;5.03;;
8993;SDS011;4532;50.886;4.700;2023-03-12T07:31:26;6.10;;;4.67;;
8993;SDS011;4532;50.886;4.700;2023-03-12T07:33:53;6.10;;;5.30;;
8993;SDS011;4532;50.886;4.700;2023-03-12T07:36:21;6.00;;;5.07;;
8993;SDS011;4532;50.886;4.700;2023-03-12T07:38:49;6.13;;;4.70;;
8993;SDS011;4532;50.886;4.700;2023-03-12T07:41:19;7.40;;;5.17;;
8993;SDS011;4532;50.886;4.700;2023-03-12T07:43:46;6.47;;;4.80;;
8993;SDS011;4532;50.886;4.700;2023-03-12T07:46:13;6.37;;;4.97;;
8993;SDS011;4532;50.886;4.700;2023-03-12T07:48:43;6.53;;;4.47;;
8993;SDS011;4532;50.886;4.700;2023-03-12T07:51:15;8.03;;;5.63;;
8993;SDS011;4532;50.886;4.700;2023-03-12T07:53:47;6.67;;;4.67;;
8993;SDS011;4532;50.886;4.700;2023-03-12T07:56:17;8.90;;;5.07;;
8993;SDS011;4532;50.886;4.700;2023-03-12T07:58:44;7.37;;;5.00;;
8993;SDS011;4532;50.886;4.700;2023-03-12T08:01:14;12.73;;;5.13;;
8993;SDS011;4532;50.886;4.700;2023-03-12T08:03:44;15.30;;;5.50;;
8993;SDS011;4532;50.886;4.700;2023-03-12T08:06:13;10.83;;;5.47;;
8993;SDS011;4532;50.886;4.700;2023-03-12T08:08:41;13.97;;;5.77;;
8993;SDS011;4532;50.886;4.700;2023-03-12T08:11:11;10.97;;;6.07;;
8993;SDS011;4532;50.886;4.700;2023-03-12T08:13:43;18.90;;;6.53;;
8993;SDS011;4532;50.886;4.700;2023-03-12T08:16:10;17.53;;;6.90;;
8993;SDS011;4532;50.886;4.700;2023-03-12T08:18:37;25.37;;;7.63;;
8993;SDS011;4532;50.886;4.700;2023-03-12T08:21:08;18.13;;;7.73;;
8993;SDS011;4532;50.886;4.700;2023-03-12T08:23:44;20.17;;;7.37;;
8993;SDS011;4532;50.886;4.700;2023-03-12T08:26:11;28.80;;;8.67;;
8993;SDS011;4532;50.886;4.700;2023-03-12T08:28:39;28.87;;;8.73;;
8993;SDS011;4532;50.886;4.700;2023-03-12T08:31:09;26.67;;;8.43;;
8993;SDS011;4532;50.886;4.700;2023-03-12T08:33:41;19.17;;;8.50;;
8993;SDS011;4532;50.886;4.700;2023-03-12T08:36:15;28.17;;;9.33;;
8993;SDS011;4532;50.886;4.700;2023-03-12T08:38:47;27.07;;;9.30;;
8993;SDS011;4532;50.886;4.700;2023-03-12T08:41:20;31.43;;;9.77;;
8993;SDS011;4532;50.886;4.700;2023-03-12T08:43:47;25.57;;;9.03;;
8993;SDS011;4532;50.886;4.700;2023-03-12T08:46:14;24.30;;;8.40;;
8993;SDS011;4532;50.886;4.700;2023-03-12T08:48:42;29.07;;;9.53;;
8993;SDS011;4532;50.886;4.700;2023-03-12T08:51:11;34.63;;;10.43;;
8993;SDS011;4532;50.886;4.700;2023-03-12T08:53:42;36.10;;;10.03;;
8993;SDS011;4532;50.886;4.700;2023-03-12T08:56:10;39.77;;;10.73;;
8993;SDS011;4532;50.886;4.700;2023-03-12T08:58:38;35.57;;;10.67;;
8993;SDS011;4532;50.886;4.700;2023-03-12T09:01:08;34.07;;;9.73;;
8993;SDS011;4532;50.886;4.700;2023-03-12T09:03:39;38.60;;;10.70;;
8993;SDS011;4532;50.886;4.700;2023-03-12T09:06:12;43.00;;;10.37;;
8993;SDS011;4532;50.886;4.700;2023-03-12T09:08:43;42.67;;;10.57;;
8993;SDS011;4532;50.886;4.700;2023-03-12T09:11:12;39.60;;;10.50;;
8993;SDS011;4532;50.886;4.700;2023-03-12T09:13:42;33.70;;;9.20;;
8993;SDS011;4532;50.886;4.700;2023-03-12T09:16:35;30.53;;;8.73;;
8993;SDS011;4532;50.886;4.700;2023-03-12T09:19:05;34.83;;;8.53;;
8993;SDS011;4532;50.886;4.700;2023-03-12T09:21:35;34.57;;;9.33;;
8993;SDS011;4532;50.886;4.700;2023-03-12T09:24:05;28.60;;;7.97;;
8993;SDS011;4532;50.886;4.700;2023-03-12T09:26:41;46.33;;;8.97;;
8993;SDS011;4532;50.886;4.700;2023-03-12T09:29:10;33.50;;;9.10;;
8993;SDS011;4532;50.886;4.700;2023-03-12T09:31:37;37.10;;;9.33;;
8993;SDS011;4532;50.886;4.700;2023-03-12T09:34:05;39.07;;;8.87;;
8993;SDS011;4532;50.886;4.700;2023-03-12T09:36:38;40.27;;;8.93;;
8993;SDS011;4532;50.886;4.700;2023-03-12T09:39:05;40.23;;;10.13;;
8993;SDS011;4532;50.886;4.700;2023-03-12T09:41:38;35.53;;;8.07;;
8993;SDS011;4532;50.886;4.700;2023-03-12T09:44:12;32.37;;;8.43;;
8993;SDS011;4532;50.886;4.700;2023-03-12T09:46:47;32.60;;;8.60;;
8993;SDS011;4532;50.886;4.700;2023-03-12T09:52:29;38.13;;;9.33;;
8993;SDS011;4532;50.886;4.700;2023-03-12T09:55:17;34.27;;;8.13;;
8993;SDS011;4532;50.886;4.700;2023-03-12T09:57:49;35.03;;;7.63;;
8993;SDS011;4532;50.886;4.700;2023-03-12T10:00:21;29.33;;;7.30;;
8993;SDS011;4532;50.886;4.700;2023-03-12T10:14:18;35.43;;;7.67;;
8993;SDS011;4532;50.886;4.700;2023-03-12T10:22:31;35.10;;;6.83;;
8993;SDS011;4532;50.886;4.700;2023-03-12T10:25:25;32.73;;;8.00;;
8993;SDS011;4532;50.886;4.700;2023-03-12T10:28:16;28.63;;;6.90;;
8993;SDS011;4532;50.886;4.700;2023-03-12T10:31:29;29.53;;;6.93;;
8993;SDS011;4532;50.886;4.700;2023-03-12T10:33:58;37.33;;;7.13;;
8993;SDS011;4532;50.886;4.700;2023-03-12T10:39:15;32.20;;;7.70;;
8993;SDS011;4532;50.886;4.700;2023-03-12T10:41:46;36.00;;;6.77;;
8993;SDS011;4532;50.886;4.700;2023-03-12T10:44:23;33.50;;;7.00;;
8993;SDS011;4532;50.886;4.700;2023-03-12T10:47:09;40.17;;;7.33;;
8993;SDS011;4532;50.886;4.700;2023-03-12T10:52:45;38.67;;;7.80;;
8993;SDS011;4532;50.886;4.700;2023-03-12T10:57:54;34.20;;;8.23;;
8993;SDS011;4532;50.886;4.700;2023-03-12T11:02:57;28.90;;;7.03;;
8993;SDS011;4532;50.886;4.700;2023-03-12T11:05:35;34.40;;;6.87;;
8993;SDS011;4532;50.886;4.700;2023-03-12T11:08:18;34.10;;;7.93;;
8993;SDS011;4532;50.886;4.700;2023-03-12T11:10:52;27.77;;;6.83;;
8993;SDS011;4532;50.886;4.700;2023-03-12T11:15:52;34.33;;;7.70;;
8993;SDS011;4532;50.886;4.700;2023-03-12T11:23:39;39.33;;;7.83;;
8993;SDS011;4532;50.886;4.700;2023-03-12T11:26:52;31.90;;;7.23;;
8993;SDS011;4532;50.886;4.700;2023-03-12T11:29:26;36.77;;;6.93;;
8993;SDS011;4532;50.886;4.700;2023-03-12T11:34:33;36.40;;;7.80;;
8993;SDS011;4532;50.886;4.700;2023-03-12T11:40:09;30.53;;;7.63;;
8993;SDS011;4532;50.886;4.700;2023-03-12T11:56:27;28.50;;;7.23;;
8993;SDS011;4532;50.886;4.700;2023-03-12T12:10:24;32.10;;;6.43;;
8993;SDS011;4532;50.886;4.700;2023-03-12T12:21:13;33.67;;;8.30;;
8993;SDS011;4532;50.886;4.700;2023-03-12T12:24:02;29.63;;;7.23;;
8993;SDS011;4532;50.886;4.700;2023-03-12T12:31:57;37.20;;;8.43;;
8993;SDS011;4532;50.886;4.700;2023-03-12T12:43:36;31.80;;;7.27;;
8993;SDS011;4532;50.886;4.700;2023-03-12T12:46:05;28.03;;;6.60;;
8993;SDS011;4532;50.886;4.700;2023-03-12T12:48:59;33.47;;;6.20;;
8993;SDS011;4532;50.886;4.700;2023-03-12T12:51:46;32.92;;;6.63;;
8993;SDS011;4532;50.886;4.700;2023-03-12T12:54:37;29.90;;;5.80;;
8993;SDS011;4532;50.886;4.700;2023-03-12T13:03:12;25.90;;;5.80;;
8993;SDS011;4532;50.886;4.700;2023-03-12T13:06:01;33.33;;;6.07;;
8993;SDS011;4532;50.886;4.700;2023-03-12T13:11:03;33.30;;;6.50;;
8993;SDS011;4532;50.886;4.700;2023-03-12T13:24:39;38.90;;;6.63;;
8993;SDS011;4532;50.886;4.700;2023-03-12T13:29:48;26.97;;;6.13;;
8993;SDS011;4532;50.886;4.700;2023-03-12T13:45:39;29.87;;;6.33;;
8993;SDS011;4532;50.886;4.700;2023-03-12T13:48:23;27.33;;;5.73;;
8993;SDS011;4532;50.886;4.700;2023-03-12T13:50:55;32.40;;;5.83;;
8993;SDS011;4532;50.886;4.700;2023-03-12T13:53:26;29.50;;;6.43;;
8993;SDS011;4532;50.886;4.700;2023-03-12T13:56:13;23.97;;;5.90;;
8993;SDS011;4532;50.886;4.700;2023-03-12T13:58:47;30.73;;;6.27;;
8993;SDS011;4532;50.886;4.700;2023-03-12T14:01:17;24.97;;;6.90;;
8993;SDS011;4532;50.886;4.700;2023-03-12T14:03:48;20.97;;;5.80;;
8993;SDS011;4532;50.886;4.700;2023-03-12T14:06:25;24.80;;;5.30;;
8993;SDS011;4532;50.886;4.700;2023-03-12T14:16:52;31.33;;;6.40;;
8993;SDS011;4532;50.886;4.700;2023-03-12T14:19:29;27.10;;;6.53;;
8993;SDS011;4532;50.886;4.700;2023-03-12T14:22:03;28.73;;;6.00;;
8993;SDS011;4532;50.886;4.700;2023-03-12T14:24:57;30.20;;;5.47;;
8993;SDS011;4532;50.886;4.700;2023-03-12T14:27:30;26.03;;;5.73;;
8993;SDS011;4532;50.886;4.700;2023-03-12T14:32:41;28.60;;;5.93;;
8993;SDS011;4532;50.886;4.700;2023-03-12T14:43:19;22.97;;;4.80;;
8993;SDS011;4532;50.886;4.700;2023-03-12T14:45:58;23.27;;;5.67;;
8993;SDS011;4532;50.886;4.700;2023-03-12T14:48:28;24.07;;;5.13;;
8993;SDS011;4532;50.886;4.700;2023-03-12T14:51:15;27.33;;;5.53;;
8993;SDS011;4532;50.886;4.700;2023-03-12T14:53:52;28.60;;;5.20;;
8993;SDS011;4532;50.886;4.700;2023-03-12T14:58:59;27.83;;;5.20;;
8993;SDS011;4532;50.886;4.700;2023-03-12T15:01:46;21.30;;;4.43;;
8993;SDS011;4532;50.886;4.700;2023-03-12T15:04:20;24.33;;;5.30;;
8993;SDS011;4532;50.886;4.700;2023-03-12T15:06:50;21.73;;;4.73;;
8993;SDS011;4532;50.886;4.700;2023-03-12T15:09:30;24.97;;;6.47;;
8993;SDS011;4532;50.886;4.700;2023-03-12T15:12:02;19.23;;;4.07;;
8993;SDS011;4532;50.886;4.700;2023-03-12T15:14:32;25.43;;;5.40;;
8993;SDS011;4532;50.886;4.700;2023-03-12T15:17:09;22.53;;;4.60;;
8993;SDS011;4532;50.886;4.700;2023-03-12T15:19:42;17.57;;;4.17;;
8993;SDS011;4532;50.886;4.700;2023-03-12T15:22:12;19.23;;;4.60;;
8993;SDS011;4532;50.886;4.700;2023-03-12T15:24:42;25.17;;;5.27;;
8993;SDS011;4532;50.886;4.700;2023-03-12T15:29:46;25.10;;;4.73;;
8993;SDS011;4532;50.886;4.700;2023-03-12T15:32:14;24.23;;;5.03;;
8993;SDS011;4532;50.886;4.700;2023-03-12T15:34:45;21.70;;;4.83;;
8993;SDS011;4532;50.886;4.700;2023-03-12T15:42:45;21.43;;;4.73;;
8993;SDS011;4532;50.886;4.700;2023-03-12T15:45:23;24.27;;;4.87;;
8993;SDS011;4532;50.886;4.700;2023-03-12T15:47:59;26.97;;;5.33;;
8993;SDS011;4532;50.886;4.700;2023-03-12T15:50:36;18.17;;;4.13;;
8993;SDS011;4532;50.886;4.700;2023-03-12T15:55:38;19.10;;;4.37;;
8993;SDS011;4532;50.886;4.700;2023-03-12T16:01:04;19.73;;;5.03;;
8993;SDS011;4532;50.886;4.700;2023-03-12T16:03:37;22.83;;;4.80;;
8993;SDS011;4532;50.886;4.700;2023-03-12T16:06:19;28.00;;;5.23;;
8993;SDS011;4532;50.886;4.700;2023-03-12T16:11:27;21.23;;;4.47;;
8993;SDS011;4532;50.886;4.700;2023-03-12T16:16:34;25.53;;;5.20;;
8993;SDS011;4532;50.886;4.700;2023-03-12T16:19:11;22.10;;;4.77;;
8993;SDS011;4532;50.886;4.700;2023-03-12T16:21:42;22.13;;;5.13;;
8993;SDS011;4532;50.886;4.700;2023-03-12T16:24:14;19.90;;;4.70;;
8993;SDS011;4532;50.886;4.700;2023-03-12T16:26:48;18.77;;;4.43;;
8993;SDS011;4532;50.886;4.700;2023-03-12T16:29:17;23.20;;;4.50;;
8993;SDS011;4532;50.886;4.700;2023-03-12T16:31:50;21.20;;;4.57;;
8993;SDS011;4532;50.886;4.700;2023-03-12T16:34:27;17.53;;;4.17;;
8993;SDS011;4532;50.886;4.700;2023-03-12T16:36:57;15.83;;;4.27;;
8993;SDS011;4532;50.886;4.700;2023-03-12T16:39:26;17.93;;;4.00;;
8993;SDS011;4532;50.886;4.700;2023-03-12T16:42:02;23.00;;;4.73;;
8993;SDS011;4532;50.886;4.700;2023-03-12T16:44:33;22.97;;;5.17;;
8993;SDS011;4532;50.886;4.700;2023-03-12T16:47:01;26.23;;;5.57;;
8993;SDS011;4532;50.886;4.700;2023-03-12T16:49:28;23.13;;;5.87;;
8993;SDS011;4532;50.886;4.700;2023-03-12T16:52:00;22.63;;;5.00;;
8993;SDS011;4532;50.886;4.700;2023-03-12T16:54:27;19.23;;;4.40;;
8993;SDS011;4532;50.886;4.700;2023-03-12T16:56:57;20.70;;;4.80;;
8993;SDS011;4532;50.886;4.700;2023-03-12T16:59:26;17.23;;;5.40;;
8993;SDS011;4532;50.886;4.700;2023-03-12T17:01:57;21.97;;;4.63;;
8993;SDS011;4532;50.886;4.700;2023-03-12T17:04:26;19.57;;;4.83;;
8993;SDS011;4532;50.886;4.700;2023-03-12T17:06:53;21.67;;;4.97;;
8993;SDS011;4532;50.886;4.700;2023-03-12T17:09:25;23.37;;;5.13;;
8993;SDS011;4532;50.886;4.700;2023-03-12T17:11:52;21.90;;;4.53;;
8993;SDS011;4532;50.886;4.700;2023-03-12T17:14:24;15.83;;;4.33;;
8993;SDS011;4532;50.886;4.700;2023-03-12T17:16:56;17.10;;;4.33;;
8993;SDS011;4532;50.886;4.700;2023-03-12T17:19:26;25.37;;;5.00;;
8993;SDS011;4532;50.886;4.700;2023-03-12T17:21:58;24.13;;;4.97;;
8993;SDS011;4532;50.886;4.700;2023-03-12T17:24:28;21.03;;;4.90;;
8993;SDS011;4532;50.886;4.700;2023-03-12T17:27:00;20.63;;;4.77;;
8993;SDS011;4532;50.886;4.700;2023-03-12T17:29:30;19.67;;;5.23;;
8993;SDS011;4532;50.886;4.700;2023-03-12T17:31:57;21.60;;;5.00;;
8993;SDS011;4532;50.886;4.700;2023-03-12T17:34:28;18.07;;;4.83;;
8993;SDS011;4532;50.886;4.700;2023-03-12T17:37:00;25.80;;;5.20;;
8993;SDS011;4532;50.886;4.700;2023-03-12T17:39:28;18.33;;;4.53;;
8993;SDS011;4532;50.886;4.700;2023-03-12T17:41:57;18.67;;;4.57;;
8993;SDS011;4532;50.886;4.700;2023-03-12T17:44:24;23.23;;;4.57;;
8993;SDS011;4532;50.886;4.700;2023-03-12T17:47:00;17.77;;;4.67;;
8993;SDS011;4532;50.886;4.700;2023-03-12T17:49:30;20.93;;;4.40;;
8993;SDS011;4532;50.886;4.700;2023-03-12T17:51:57;22.33;;;4.90;;
8993;SDS011;4532;50.886;4.700;2023-03-12T17:54:28;19.47;;;4.53;;
8993;SDS011;4532;50.886;4.700;2023-03-12T17:56:56;20.03;;;5.13;;
8993;SDS011;4532;50.886;4.700;2023-03-12T17:59:27;19.93;;;5.30;;
8993;SDS011;4532;50.886;4.700;2023-03-12T18:01:54;18.97;;;5.37;;
8993;SDS011;4532;50.886;4.700;2023-03-12T18:04:21;19.20;;;4.90;;
8993;SDS011;4532;50.886;4.700;2023-03-12T18:06:49;26.00;;;5.30;;
8993;SDS011;4532;50.886;4.700;2023-03-12T18:09:21;15.10;;;4.73;;
8993;SDS011;4532;50.886;4.700;2023-03-12T18:11:53;21.57;;;4.67;;
8993;SDS011;4532;50.886;4.700;2023-03-12T18:14:20;19.03;;;4.77;;
8993;SDS011;4532;50.886;4.700;2023-03-12T18:16:49;21.60;;;5.07;;
8993;SDS011;4532;50.886;4.700;2023-03-12T18:19:19;20.03;;;4.23;;
8993;SDS011;4532;50.886;4.700;2023-03-12T18:21:49;18.13;;;4.97;;
8993;SDS011;4532;50.886;4.700;2023-03-12T18:24:16;21.20;;;4.60;;
8993;SDS011;4532;50.886;4.700;2023-03-12T18:26:48;17.47;;;5.43;;
8993;SDS011;4532;50.886;4.700;2023-03-12T18:29:18;16.67;;;4.97;;